createdAt,value
2022-10-18T00:00:10.661Z,22.00
2022-10-18T00:00:43.499Z,27.85
2022-10-18T00:01:15.438Z,25.05
2022-10-18T00:01:47.339Z,25.90
2022-10-18T00:02:20.201Z,22.00
2022-10-18T00:02:52.273Z,20.20
2022-10-18T00:03:24.540Z,14.63
2022-10-18T00:03:56.419Z,24.15
2022-10-18T00:04:28.332Z,14.77
2022-10-18T00:05:00.159Z,16.30
2022-10-18T00:05:32.190Z,12.02
2022-10-18T00:06:06.114Z,12.93
2022-10-18T00:06:41.126Z,14.65
2022-10-18T00:07:15.407Z,20.50
2022-10-18T00:07:47.227Z,11.23
2022-10-18T00:08:19.735Z,11.88
2022-10-18T00:08:51.750Z,14.00
2022-10-18T00:09:23.661Z,10.70
2022-10-18T00:09:55.905Z,11.23
2022-10-18T00:10:27.884Z,10.55
2022-10-18T00:10:59.719Z,10.85
2022-10-18T00:11:31.940Z,11.30
2022-10-18T00:12:04.145Z,12.10
2022-10-18T00:12:37.335Z,9.77
2022-10-18T00:13:09.344Z,14.20
2022-10-18T00:13:41.233Z,12.20
2022-10-18T00:14:13.170Z,10.77
2022-10-18T00:14:45.006Z,11.20
2022-10-18T00:15:17.676Z,9.27
2022-10-18T00:15:55.560Z,11.12
2022-10-18T00:16:27.405Z,9.73
2022-10-18T00:16:59.585Z,11.35
2022-10-18T00:17:31.618Z,11.05
2022-10-18T00:18:04.143Z,24.35
2022-10-18T00:18:35.962Z,12.18
2022-10-18T00:19:07.794Z,10.30
2022-10-18T00:19:39.611Z,8.15
2022-10-18T00:20:12.107Z,11.90
2022-10-18T00:20:43.992Z,13.27
2022-10-18T00:21:21.692Z,12.73
2022-10-18T00:21:53.522Z,9.48
2022-10-18T00:22:25.789Z,9.98
2022-10-18T00:22:57.842Z,9.05
2022-10-18T00:23:31.325Z,8.60
2022-10-18T00:24:03.849Z,10.05
2022-10-18T00:24:35.714Z,12.75
2022-10-18T00:25:08.654Z,9.20
2022-10-18T00:25:40.556Z,13.45
2022-10-18T00:26:21.149Z,9.77
2022-10-18T00:27:25.232Z,9.45
2022-10-18T00:27:57.692Z,9.23
2022-10-18T00:28:29.625Z,11.43
2022-10-18T00:29:04.078Z,10.48
2022-10-18T00:29:35.960Z,8.85
2022-10-18T00:30:08.255Z,8.10
2022-10-18T00:30:40.178Z,7.95
2022-10-18T00:31:16.606Z,9.55
2022-10-18T00:31:48.477Z,8.95
2022-10-18T00:32:20.622Z,7.18
2022-10-18T00:32:52.754Z,9.52
2022-10-18T00:33:24.605Z,8.73
2022-10-18T00:33:59.373Z,11.75
2022-10-18T00:34:31.237Z,10.98
2022-10-18T00:35:03.708Z,7.60
2022-10-18T00:35:35.704Z,8.50
2022-10-18T00:36:07.855Z,7.30
2022-10-18T00:36:39.852Z,12.25
2022-10-18T00:37:11.697Z,8.15
2022-10-18T00:37:43.665Z,13.10
2022-10-18T00:38:15.891Z,11.00
2022-10-18T00:38:48.708Z,8.15
2022-10-18T00:39:21.693Z,10.73
2022-10-18T00:39:53.560Z,13.07
2022-10-18T00:40:25.836Z,9.48
2022-10-18T00:40:57.708Z,10.43
2022-10-18T00:41:31.678Z,10.30
2022-10-18T00:42:04.247Z,13.48
2022-10-18T00:42:37.312Z,9.57
2022-10-18T00:43:15.422Z,9.32
2022-10-18T00:43:59.993Z,7.85
2022-10-18T00:44:32.051Z,12.68
2022-10-18T00:45:16.121Z,9.65
2022-10-18T00:45:47.963Z,10.23
2022-10-18T00:46:20.170Z,14.13
2022-10-18T00:46:55.089Z,9.07
2022-10-18T00:47:27.045Z,10.80
2022-10-18T00:48:02.540Z,11.30
2022-10-18T00:48:34.550Z,8.45
2022-10-18T00:49:19.496Z,9.98
2022-10-18T00:49:56.172Z,12.65
2022-10-18T00:50:32.767Z,10.25
2022-10-18T00:51:04.688Z,9.30
2022-10-18T00:51:56.146Z,9.60
2022-10-18T00:52:39.564Z,10.80
2022-10-18T00:53:21.167Z,9.52
2022-10-18T00:53:53.065Z,11.25
2022-10-18T00:54:28.266Z,11.70
2022-10-18T00:55:00.718Z,11.95
2022-10-18T00:55:34.151Z,9.45
2022-10-18T00:56:06.500Z,8.18
2022-10-18T00:56:38.439Z,13.82
2022-10-18T00:57:11.026Z,10.52
2022-10-18T00:57:45.017Z,14.63
2022-10-18T00:58:19.282Z,10.63
2022-10-18T00:58:51.733Z,8.27
2022-10-18T00:59:24.355Z,10.35
2022-10-18T00:59:56.777Z,12.45
2022-10-18T01:00:28.713Z,11.93
2022-10-18T01:01:00.563Z,9.73
2022-10-18T01:01:32.531Z,10.13
2022-10-18T01:02:06.171Z,10.85
2022-10-18T01:02:40.051Z,8.55
2022-10-18T01:03:11.975Z,10.40
2022-10-18T01:03:43.916Z,12.63
2022-10-18T01:04:18.609Z,11.10
2022-10-18T01:04:50.477Z,11.32
2022-10-18T01:05:24.074Z,14.00
2022-10-18T01:05:55.994Z,9.43
2022-10-18T01:06:29.268Z,8.88
2022-10-18T01:07:16.282Z,10.48
2022-10-18T01:07:53.818Z,9.00
2022-10-18T01:08:45.053Z,15.07
2022-10-18T01:10:31.028Z,8.45
2022-10-18T01:11:08.967Z,11.93
2022-10-18T01:11:58.410Z,9.98
2022-10-18T01:12:33.149Z,14.27
2022-10-18T01:13:29.945Z,9.80
2022-10-18T01:14:20.707Z,9.43
2022-10-18T01:15:06.479Z,12.48
2022-10-18T01:15:52.842Z,8.65
2022-10-18T01:16:31.252Z,8.98
2022-10-18T01:17:13.635Z,11.25
2022-10-18T01:18:27.625Z,7.75
2022-10-18T01:19:40.754Z,9.65
2022-10-18T01:20:36.526Z,11.10
2022-10-18T01:21:37.708Z,9.35
2022-10-18T01:23:44.674Z,10.48
2022-10-18T01:24:57.748Z,9.40
2022-10-18T01:25:44.690Z,8.98
2022-10-18T01:26:16.486Z,11.90
2022-10-18T01:27:06.362Z,9.88
2022-10-18T01:27:45.549Z,8.70
2022-10-18T01:28:28.354Z,11.52
2022-10-18T01:29:06.154Z,10.50
2022-10-18T01:30:02.389Z,12.07
2022-10-18T01:30:41.705Z,18.87
2022-10-18T01:31:19.256Z,14.15
2022-10-18T01:32:01.686Z,11.93
2022-10-18T01:32:48.895Z,12.37
2022-10-18T01:33:28.072Z,8.93
2022-10-18T01:34:04.768Z,10.00
2022-10-18T01:34:41.359Z,10.80
2022-10-18T01:35:18.624Z,13.52
2022-10-18T01:36:01.013Z,13.90
2022-10-18T01:36:36.131Z,19.37
2022-10-18T01:37:14.179Z,11.07
2022-10-18T01:37:49.237Z,13.85
2022-10-18T01:38:25.034Z,9.05
2022-10-18T01:39:01.155Z,10.68
2022-10-18T01:39:37.308Z,9.68
2022-10-18T01:40:12.490Z,13.20
2022-10-18T01:40:47.456Z,9.30
2022-10-18T01:41:22.447Z,12.25
2022-10-18T01:41:57.270Z,10.32
2022-10-18T01:42:29.608Z,12.35
2022-10-18T01:43:02.606Z,9.88
2022-10-18T01:43:37.100Z,12.02
2022-10-18T01:44:12.701Z,16.23
2022-10-18T01:44:46.915Z,10.48
2022-10-18T01:45:21.237Z,10.90
2022-10-18T01:45:55.804Z,10.10
2022-10-18T01:46:29.595Z,10.07
2022-10-18T01:47:01.801Z,10.73
2022-10-18T01:47:35.345Z,13.40
2022-10-18T01:48:07.722Z,14.50
2022-10-18T01:48:40.076Z,10.95
2022-10-18T01:49:11.900Z,10.80
2022-10-18T01:49:43.799Z,12.77
2022-10-18T01:50:16.045Z,10.77
2022-10-18T01:50:47.942Z,11.18
2022-10-18T01:51:31.638Z,12.37
2022-10-18T01:52:03.554Z,12.30
2022-10-18T01:52:35.612Z,13.75
2022-10-18T01:53:25.206Z,12.05
2022-10-18T01:53:57.809Z,8.40
2022-10-18T01:54:39.192Z,12.10
2022-10-18T01:55:11.454Z,12.05
2022-10-18T01:55:56.261Z,13.30
2022-10-18T01:56:49.829Z,10.65
2022-10-18T01:57:46.494Z,14.20
2022-10-18T01:58:31.550Z,14.05
2022-10-18T01:59:15.554Z,11.00
2022-10-18T02:00:09.062Z,15.85
2022-10-18T02:00:44.376Z,11.65
2022-10-18T02:01:31.047Z,10.95
2022-10-18T02:02:21.433Z,13.00
2022-10-18T02:03:09.451Z,14.90
2022-10-18T02:03:46.581Z,9.93
2022-10-18T02:04:31.969Z,12.25
2022-10-18T02:05:33.016Z,18.60
2022-10-18T02:06:33.942Z,12.20
2022-10-18T02:07:30.225Z,11.52
2022-10-18T02:08:23.738Z,13.73
2022-10-18T02:09:13.881Z,18.75
2022-10-18T02:10:26.750Z,15.90
2022-10-18T02:11:03.328Z,13.23
2022-10-18T02:11:38.582Z,13.90
2022-10-18T02:12:14.399Z,15.88
2022-10-18T02:12:48.150Z,17.80
2022-10-18T02:13:22.408Z,14.70
2022-10-18T02:13:58.096Z,12.00
2022-10-18T02:14:30.976Z,14.70
2022-10-18T02:15:06.295Z,12.75
2022-10-18T02:15:41.290Z,16.77
2022-10-18T02:16:30.848Z,12.93
2022-10-18T02:17:07.331Z,12.70
2022-10-18T02:17:41.033Z,13.90
2022-10-18T02:18:19.189Z,10.95
2022-10-18T02:18:58.113Z,11.20
2022-10-18T02:19:38.489Z,12.77
2022-10-18T02:20:13.084Z,13.82
2022-10-18T02:20:46.832Z,13.68
2022-10-18T02:21:21.343Z,13.70
2022-10-18T02:21:55.430Z,13.15
2022-10-18T02:22:32.585Z,14.23
2022-10-18T02:23:08.162Z,13.73
2022-10-18T02:23:39.992Z,15.43
2022-10-18T02:24:14.726Z,10.43
2022-10-18T02:24:51.258Z,14.95
2022-10-18T02:25:30.433Z,15.30
2022-10-18T02:26:02.370Z,12.15
2022-10-18T02:26:34.313Z,12.88
2022-10-18T02:27:06.476Z,13.25
2022-10-18T02:27:38.319Z,11.25
2022-10-18T02:28:10.617Z,12.57
2022-10-18T02:28:43.144Z,12.93
2022-10-18T02:29:15.010Z,13.75
2022-10-18T02:29:47.271Z,14.05
2022-10-18T02:30:23.153Z,13.90
2022-10-18T02:31:20.410Z,13.80
2022-10-18T02:32:03.503Z,12.05
2022-10-18T02:32:44.772Z,11.95
2022-10-18T02:33:27.709Z,11.35
2022-10-18T02:34:11.472Z,11.00
2022-10-18T02:35:05.907Z,12.70
2022-10-18T02:35:44.727Z,22.08
2022-10-18T02:36:23.871Z,10.23
2022-10-18T02:36:59.713Z,13.55
2022-10-18T02:37:36.311Z,12.07
2022-10-18T02:38:11.828Z,12.43
2022-10-18T02:38:46.145Z,11.07
2022-10-18T02:39:29.462Z,13.05
2022-10-18T02:40:02.891Z,16.05
2022-10-18T02:40:34.977Z,14.73
2022-10-18T02:41:07.023Z,11.12
2022-10-18T02:41:38.836Z,13.30
2022-10-18T02:42:11.858Z,12.10
2022-10-18T02:42:53.975Z,12.75
2022-10-18T02:43:25.845Z,14.45
2022-10-18T02:43:58.387Z,13.13
2022-10-18T02:44:30.221Z,13.73
2022-10-18T02:45:02.306Z,10.93
2022-10-18T02:45:34.372Z,12.13
2022-10-18T02:46:06.329Z,12.35
2022-10-18T02:46:39.453Z,16.00
2022-10-18T02:47:12.499Z,11.73
2022-10-18T02:47:44.663Z,14.15
2022-10-18T02:48:16.499Z,14.68
2022-10-18T02:48:48.727Z,14.00
2022-10-18T02:49:20.993Z,12.93
2022-10-18T02:49:52.812Z,15.50
2022-10-18T02:50:24.626Z,11.32
2022-10-18T02:50:56.484Z,14.07
2022-10-18T02:51:28.337Z,14.00
2022-10-18T02:52:00.197Z,17.30
2022-10-18T02:52:32.146Z,17.12
2022-10-18T02:53:04.409Z,13.45
2022-10-18T02:53:36.273Z,13.00
2022-10-18T02:54:08.528Z,15.02
2022-10-18T02:54:40.951Z,14.57
2022-10-18T02:55:12.807Z,14.82
2022-10-18T02:55:44.665Z,15.20
2022-10-18T02:56:16.775Z,13.23
2022-10-18T02:56:48.758Z,17.37
2022-10-18T02:57:20.612Z,12.75
2022-10-18T02:57:52.578Z,18.83
2022-10-18T02:58:24.558Z,16.20
2022-10-18T02:58:56.535Z,13.55
2022-10-18T02:59:28.433Z,17.87
2022-10-18T03:00:00.665Z,16.65
2022-10-18T03:00:32.495Z,17.08
2022-10-18T03:01:04.388Z,17.00
2022-10-18T03:01:36.373Z,15.27
2022-10-18T03:02:08.281Z,13.55
2022-10-18T03:02:40.081Z,14.65
2022-10-18T03:03:11.925Z,15.60
2022-10-18T03:03:43.772Z,17.02
2022-10-18T03:04:15.606Z,12.15
2022-10-18T03:04:47.427Z,13.07
2022-10-18T03:05:19.520Z,13.48
2022-10-18T03:05:52.467Z,16.80
2022-10-18T03:06:24.384Z,16.42
2022-10-18T03:06:56.219Z,13.02
2022-10-18T03:07:28.329Z,14.38
2022-10-18T03:08:00.311Z,17.25
2022-10-18T03:08:32.165Z,15.23
2022-10-18T03:09:05.555Z,11.12
2022-10-18T03:09:37.417Z,12.82
2022-10-18T03:10:09.422Z,15.48
2022-10-18T03:10:46.481Z,15.27
2022-10-18T03:11:18.418Z,14.90
2022-10-18T03:11:50.288Z,13.10
2022-10-18T03:12:22.208Z,15.52
2022-10-18T03:12:54.118Z,12.00
2022-10-18T03:13:26.018Z,14.48
2022-10-18T03:13:57.898Z,11.30
2022-10-18T03:14:30.010Z,14.75
2022-10-18T03:15:01.951Z,13.30
2022-10-18T03:15:33.865Z,14.60
2022-10-18T03:16:06.064Z,11.93
2022-10-18T03:16:38.010Z,12.55
2022-10-18T03:17:09.996Z,12.15
2022-10-18T03:17:41.887Z,16.37
2022-10-18T03:18:13.736Z,12.25
2022-10-18T03:18:45.660Z,13.25
2022-10-18T03:19:17.547Z,14.50
2022-10-18T03:19:49.450Z,14.07
2022-10-18T03:20:21.374Z,17.67
2022-10-18T03:20:53.205Z,12.95
2022-10-18T03:21:25.315Z,14.68
2022-10-18T03:21:57.141Z,12.13
2022-10-18T03:23:07.223Z,14.10
2022-10-18T03:23:40.038Z,11.27
2022-10-18T03:24:12.028Z,12.70
2022-10-18T03:24:43.879Z,11.45
2022-10-18T03:25:15.761Z,14.15
2022-10-18T03:25:49.018Z,14.23
2022-10-18T03:26:21.633Z,13.95
2022-10-18T03:26:53.780Z,17.05
2022-10-18T03:27:25.649Z,13.93
2022-10-18T03:27:57.486Z,13.13
2022-10-18T03:28:29.567Z,13.27
2022-10-18T03:29:01.535Z,13.45
2022-10-18T03:29:33.613Z,18.48
2022-10-18T03:30:05.824Z,12.77
2022-10-18T03:30:38.960Z,14.65
2022-10-18T03:31:10.808Z,18.83
2022-10-18T03:31:42.887Z,16.58
2022-10-18T03:32:15.026Z,16.42
2022-10-18T03:32:46.851Z,20.95
2022-10-18T03:33:18.713Z,19.77
2022-10-18T03:33:50.546Z,16.55
2022-10-18T03:34:22.412Z,19.45
2022-10-18T03:34:55.052Z,19.50
2022-10-18T03:35:26.868Z,15.10
2022-10-18T03:35:58.754Z,14.60
2022-10-18T03:36:30.638Z,13.85
2022-10-18T03:37:04.786Z,20.40
2022-10-18T03:37:39.026Z,14.68
2022-10-18T03:38:10.860Z,15.48
2022-10-18T03:38:42.724Z,15.70
2022-10-18T03:39:14.635Z,18.37
2022-10-18T03:39:46.445Z,14.73
2022-10-18T03:40:18.422Z,16.00
2022-10-18T03:40:50.266Z,11.85
2022-10-18T03:41:22.128Z,20.42
2022-10-18T03:41:53.949Z,17.12
2022-10-18T03:42:25.819Z,15.85
2022-10-18T03:42:57.958Z,15.75
2022-10-18T03:43:29.846Z,16.02
2022-10-18T03:44:01.685Z,21.20
2022-10-18T03:44:33.805Z,13.95
2022-10-18T03:45:06.170Z,14.07
2022-10-18T03:45:38.088Z,15.07
2022-10-18T03:46:10.004Z,14.10
2022-10-18T03:46:41.902Z,15.02
2022-10-18T03:47:13.869Z,20.12
2022-10-18T03:47:46.079Z,17.23
2022-10-18T03:48:18.241Z,15.23
2022-10-18T03:48:50.169Z,12.77
2022-10-18T03:49:22.096Z,15.00
2022-10-18T03:49:56.998Z,16.05
2022-10-18T03:50:29.253Z,12.93
2022-10-18T03:51:01.063Z,12.40
2022-10-18T03:51:32.916Z,12.52
2022-10-18T03:52:04.791Z,16.90
2022-10-18T03:52:36.638Z,18.83
2022-10-18T03:53:08.589Z,14.10
2022-10-18T03:53:40.758Z,14.27
2022-10-18T03:54:12.572Z,13.95
2022-10-18T03:54:44.429Z,19.52
2022-10-18T03:55:16.443Z,13.40
2022-10-18T03:55:52.799Z,16.40
2022-10-18T03:56:24.860Z,12.43
2022-10-18T03:56:56.735Z,12.88
2022-10-18T03:57:28.562Z,13.18
2022-10-18T03:58:00.428Z,12.73
2022-10-18T03:59:09.358Z,13.20
2022-10-18T03:59:41.308Z,14.95
2022-10-18T04:00:14.451Z,11.80
2022-10-18T04:00:52.983Z,21.98
2022-10-18T04:01:25.007Z,16.67
2022-10-18T04:01:57.032Z,15.52
2022-10-18T04:02:29.192Z,20.35
2022-10-18T04:03:01.405Z,14.80
2022-10-18T04:03:33.289Z,16.10
2022-10-18T04:04:05.107Z,16.10
2022-10-18T04:04:36.917Z,22.92
2022-10-18T04:05:09.298Z,64.62
2022-10-18T04:05:41.142Z,59.97
2022-10-18T04:06:13.352Z,16.77
2022-10-18T04:06:45.230Z,16.80
2022-10-18T04:07:17.099Z,14.65
2022-10-18T04:07:48.949Z,15.45
2022-10-18T04:08:20.815Z,14.00
2022-10-18T04:08:52.679Z,18.17
2022-10-18T04:09:24.515Z,12.82
2022-10-18T04:09:56.336Z,16.73
2022-10-18T04:10:28.490Z,14.40
2022-10-18T04:11:04.302Z,18.33
2022-10-18T04:11:36.587Z,20.88
2022-10-18T04:12:08.426Z,14.05
2022-10-18T04:12:40.393Z,14.70
2022-10-18T04:13:12.300Z,12.65
2022-10-18T04:13:44.119Z,13.20
2022-10-18T04:14:16.036Z,13.32
2022-10-18T04:14:48.656Z,15.80
2022-10-18T04:15:20.899Z,16.02
2022-10-18T04:15:52.711Z,17.00
2022-10-18T04:16:24.672Z,14.30
2022-10-18T04:16:56.896Z,17.15
2022-10-18T04:17:28.726Z,14.63
2022-10-18T04:18:01.303Z,21.12
2022-10-18T04:18:33.231Z,25.20
2022-10-18T04:19:05.113Z,18.55
2022-10-18T04:19:36.969Z,16.52
2022-10-18T04:20:09.256Z,17.75
2022-10-18T04:20:41.073Z,14.52
2022-10-18T04:21:12.894Z,14.45
2022-10-18T04:21:44.756Z,19.55
2022-10-18T04:22:16.900Z,18.83
2022-10-18T04:22:52.605Z,19.20
2022-10-18T04:23:24.676Z,18.58
2022-10-18T04:23:56.482Z,19.40
2022-10-18T04:24:28.368Z,19.45
2022-10-18T04:25:00.356Z,18.52
2022-10-18T04:25:32.260Z,16.83
2022-10-18T04:26:04.247Z,15.13
2022-10-18T04:26:36.633Z,17.85
2022-10-18T04:27:08.961Z,14.65
2022-10-18T04:27:41.201Z,25.90
2022-10-18T04:28:13.062Z,17.92
2022-10-18T04:28:45.587Z,16.85
2022-10-18T04:29:17.545Z,17.58
2022-10-18T04:29:49.436Z,18.77
2022-10-18T04:30:21.460Z,17.55
2022-10-18T04:30:53.998Z,16.87
2022-10-18T04:31:25.818Z,15.88
2022-10-18T04:31:57.649Z,18.90
2022-10-18T04:32:31.415Z,23.75
2022-10-18T04:33:03.605Z,22.13
2022-10-18T04:33:35.494Z,21.58
2022-10-18T04:34:07.373Z,14.90
2022-10-18T04:34:39.265Z,17.48
2022-10-18T04:35:11.573Z,17.12
2022-10-18T04:35:43.478Z,16.08
2022-10-18T04:36:15.303Z,20.23
2022-10-18T04:36:47.140Z,16.45
2022-10-18T04:37:18.966Z,17.70
2022-10-18T04:37:50.973Z,15.57
2022-10-18T04:38:23.149Z,19.92
2022-10-18T04:38:55.023Z,18.77
2022-10-18T04:39:26.911Z,18.42
2022-10-18T04:39:59.000Z,23.95
2022-10-18T04:40:30.829Z,15.85
2022-10-18T04:41:02.704Z,19.80
2022-10-18T04:41:34.644Z,18.45
2022-10-18T04:42:06.509Z,16.12
2022-10-18T04:42:38.349Z,18.77
2022-10-18T04:43:10.265Z,16.48
2022-10-18T04:43:42.511Z,16.80
2022-10-18T04:44:14.450Z,25.85
2022-10-18T04:44:46.286Z,17.77
2022-10-18T04:45:18.871Z,16.17
2022-10-18T04:45:51.262Z,21.42
2022-10-18T04:46:23.197Z,19.15
2022-10-18T04:46:55.097Z,20.20
2022-10-18T04:47:26.999Z,30.17
2022-10-18T04:47:58.873Z,22.85
2022-10-18T04:48:30.719Z,23.45
2022-10-18T04:49:03.347Z,20.40
2022-10-18T04:49:35.269Z,22.75
2022-10-18T04:50:07.464Z,17.50
2022-10-18T04:50:39.285Z,19.20
2022-10-18T04:51:18.575Z,20.23
2022-10-18T04:51:50.420Z,16.58
2022-10-18T04:52:22.200Z,16.75
2022-10-18T04:52:54.046Z,20.05
2022-10-18T04:53:25.904Z,19.23
2022-10-18T04:53:57.748Z,20.73
2022-10-18T04:54:29.884Z,18.98
2022-10-18T04:55:01.755Z,21.17
2022-10-18T04:55:33.572Z,19.08
2022-10-18T04:56:05.816Z,22.23
2022-10-18T04:56:37.894Z,21.98
2022-10-18T04:57:09.813Z,21.20
2022-10-18T04:57:41.785Z,30.20
2022-10-18T04:58:13.663Z,24.42
2022-10-18T04:58:45.467Z,20.33
2022-10-18T04:59:17.292Z,22.45
2022-10-18T04:59:49.467Z,27.25
2022-10-18T05:00:21.760Z,27.05
2022-10-18T05:00:54.097Z,21.25
2022-10-18T05:01:25.987Z,22.15
2022-10-18T05:01:58.028Z,23.35
2022-10-18T05:02:30.357Z,19.60
2022-10-18T05:03:02.541Z,19.20
2022-10-18T05:03:34.902Z,20.88
2022-10-18T05:04:06.748Z,24.02
2022-10-18T05:04:38.591Z,23.25
2022-10-18T05:05:14.006Z,21.00
2022-10-18T05:06:03.199Z,24.35
2022-10-18T05:06:35.483Z,21.20
2022-10-18T05:07:07.371Z,23.00
2022-10-18T05:07:39.209Z,22.30
2022-10-18T05:08:11.085Z,24.27
2022-10-18T05:08:42.933Z,22.45
2022-10-18T05:09:14.860Z,20.12
2022-10-18T05:09:46.687Z,24.05
2022-10-18T05:10:18.908Z,20.50
2022-10-18T05:10:50.737Z,22.42
2022-10-18T05:11:22.599Z,21.75
2022-10-18T05:11:54.476Z,22.75
2022-10-18T05:12:26.376Z,25.25
2022-10-18T05:12:58.264Z,23.75
2022-10-18T05:13:30.451Z,22.27
2022-10-18T05:14:02.286Z,17.45
2022-10-18T05:14:34.268Z,15.88
2022-10-18T05:15:06.481Z,20.08
2022-10-18T05:15:38.666Z,36.97
2022-10-18T05:16:10.905Z,20.10
2022-10-18T05:16:42.762Z,15.52
2022-10-18T05:17:14.840Z,17.15
2022-10-18T05:17:47.004Z,17.67
2022-10-18T05:18:18.890Z,20.90
2022-10-18T05:18:50.745Z,18.77
2022-10-18T05:19:22.570Z,16.37
2022-10-18T05:19:54.424Z,18.60
2022-10-18T05:20:26.243Z,15.15
2022-10-18T05:20:58.504Z,24.05
2022-10-18T05:21:30.365Z,15.68
2022-10-18T05:22:02.238Z,15.60
2022-10-18T05:22:34.208Z,21.42
2022-10-18T05:23:06.400Z,16.98
2022-10-18T05:23:38.506Z,19.08
2022-10-18T05:24:13.479Z,25.25
2022-10-18T05:24:45.340Z,24.77
2022-10-18T05:25:17.358Z,20.52
2022-10-18T05:25:49.924Z,23.08
2022-10-18T05:26:22.194Z,21.83
2022-10-18T05:26:54.018Z,22.95
2022-10-18T05:27:25.883Z,18.75
2022-10-18T05:27:58.014Z,21.87
2022-10-18T05:28:40.114Z,31.73
2022-10-18T05:29:12.352Z,21.65
2022-10-18T05:29:44.240Z,23.35
2022-10-18T05:30:16.132Z,20.83
2022-10-18T05:30:47.983Z,23.42
2022-10-18T05:31:19.972Z,25.55
2022-10-18T05:31:52.320Z,27.60
2022-10-18T05:32:24.184Z,22.42
2022-10-18T05:32:56.012Z,22.13
2022-10-18T05:33:28.285Z,27.10
2022-10-18T05:34:01.577Z,21.70
2022-10-18T05:34:33.602Z,25.98
2022-10-18T05:35:05.851Z,22.85
2022-10-18T05:35:37.753Z,28.98
2022-10-18T05:36:10.574Z,24.85
2022-10-18T05:36:42.534Z,26.45
2022-10-18T05:37:14.765Z,25.15
2022-10-18T05:37:46.578Z,24.63
2022-10-18T05:38:18.411Z,23.05
2022-10-18T05:38:50.409Z,22.65
2022-10-18T05:39:22.251Z,25.30
2022-10-18T05:39:54.126Z,24.75
2022-10-18T05:40:26.015Z,34.50
2022-10-18T05:40:58.973Z,21.15
2022-10-18T05:41:31.398Z,22.42
2022-10-18T05:42:03.479Z,29.77
2022-10-18T05:42:35.810Z,23.65
2022-10-18T05:43:07.683Z,33.38
2022-10-18T05:43:40.494Z,24.12
2022-10-18T05:44:12.363Z,29.40
2022-10-18T05:44:44.177Z,27.08
2022-10-18T05:45:16.115Z,27.67
2022-10-18T05:45:50.028Z,24.40
2022-10-18T05:46:22.296Z,30.08
2022-10-18T05:46:54.168Z,28.77
2022-10-18T05:47:26.018Z,22.35
2022-10-18T05:47:58.270Z,22.50
2022-10-18T05:48:30.156Z,30.65
2022-10-18T05:49:02.005Z,30.27
2022-10-18T05:49:33.909Z,28.48
2022-10-18T05:50:05.872Z,25.90
2022-10-18T05:50:40.245Z,29.17
2022-10-18T05:51:12.396Z,26.35
2022-10-18T05:51:44.231Z,23.65
2022-10-18T05:52:17.116Z,32.03
2022-10-18T05:52:48.926Z,30.20
2022-10-18T05:53:37.494Z,27.23
2022-10-18T05:54:12.389Z,25.10
2022-10-18T05:54:44.243Z,28.90
2022-10-18T05:55:16.141Z,21.62
2022-10-18T05:55:48.003Z,26.48
2022-10-18T05:56:19.878Z,26.27
2022-10-18T05:56:51.755Z,34.28
2022-10-18T05:57:23.611Z,31.37
2022-10-18T05:57:55.483Z,26.77
2022-10-18T05:58:27.648Z,27.75
2022-10-18T05:58:59.551Z,26.12
2022-10-18T05:59:31.465Z,35.13
2022-10-18T06:00:04.608Z,26.02
2022-10-18T06:00:43.693Z,32.13
2022-10-18T06:01:16.071Z,31.30
2022-10-18T06:01:47.915Z,26.20
2022-10-18T06:02:19.830Z,25.88
2022-10-18T06:02:51.844Z,35.58
2022-10-18T06:03:23.697Z,38.33
2022-10-18T06:03:55.543Z,35.00
2022-10-18T06:04:27.342Z,27.02
2022-10-18T06:04:59.751Z,27.30
2022-10-18T06:05:31.685Z,25.73
2022-10-18T06:06:08.577Z,30.75
2022-10-18T06:06:40.769Z,28.73
2022-10-18T06:07:12.636Z,23.20
2022-10-18T06:07:44.539Z,26.27
2022-10-18T06:08:16.515Z,26.98
2022-10-18T06:08:50.040Z,31.10
2022-10-18T06:09:21.971Z,25.00
2022-10-18T06:09:53.803Z,25.48
2022-10-18T06:10:25.643Z,25.48
2022-10-18T06:10:57.550Z,29.92
2022-10-18T06:11:30.622Z,31.17
2022-10-18T06:12:03.436Z,34.47
2022-10-18T06:12:35.244Z,34.45
2022-10-18T06:13:07.122Z,29.45
2022-10-18T06:13:50.841Z,25.85
2022-10-18T06:14:22.719Z,28.65
2022-10-18T06:14:54.552Z,25.95
2022-10-18T06:15:26.427Z,30.12
2022-10-18T06:15:58.275Z,26.48
2022-10-18T06:16:32.662Z,23.55
2022-10-18T06:17:05.575Z,37.28
2022-10-18T06:17:37.775Z,25.60
2022-10-18T06:18:10.002Z,27.23
2022-10-18T06:18:42.731Z,27.42
2022-10-18T06:19:14.618Z,32.58
2022-10-18T06:19:46.491Z,32.33
2022-10-18T06:20:18.335Z,32.92
2022-10-18T06:20:50.182Z,25.08
2022-10-18T06:21:23.412Z,29.83
2022-10-18T06:21:55.277Z,31.05
2022-10-18T06:22:27.393Z,35.83
2022-10-18T06:22:59.216Z,31.02
2022-10-18T06:23:31.142Z,42.88
2022-10-18T06:24:02.999Z,28.65
2022-10-18T06:24:34.892Z,28.08
2022-10-18T06:25:07.118Z,41.15
2022-10-18T06:25:38.944Z,28.27
2022-10-18T06:26:11.687Z,28.00
2022-10-18T06:26:43.566Z,29.17
2022-10-18T06:27:15.399Z,40.10
2022-10-18T06:27:47.552Z,30.60
2022-10-18T06:28:19.551Z,32.03
2022-10-18T06:28:51.565Z,32.05
2022-10-18T06:29:23.422Z,33.05
2022-10-18T06:29:55.291Z,29.08
2022-10-18T06:30:27.119Z,31.75
2022-10-18T06:30:58.976Z,31.85
2022-10-18T06:31:30.851Z,29.73
2022-10-18T06:32:03.182Z,30.77
2022-10-18T06:32:35.004Z,25.33
2022-10-18T06:33:07.149Z,34.03
2022-10-18T06:33:39.373Z,36.75
2022-10-18T06:34:11.322Z,33.75
2022-10-18T06:34:43.150Z,31.37
2022-10-18T06:35:15.080Z,28.35
2022-10-18T06:36:07.636Z,31.85
2022-10-18T06:36:39.470Z,30.37
2022-10-18T06:37:11.482Z,30.83
2022-10-18T06:38:20.387Z,27.50
2022-10-18T06:38:53.474Z,33.35
2022-10-18T06:39:26.061Z,24.27
2022-10-18T06:39:58.067Z,33.22
2022-10-18T06:40:30.964Z,32.90
2022-10-18T06:41:03.605Z,25.58
2022-10-18T06:41:35.437Z,33.30
2022-10-18T06:42:07.503Z,31.30
2022-10-18T06:42:39.350Z,30.95
2022-10-18T06:43:20.511Z,29.25
2022-10-18T06:43:57.385Z,28.77
2022-10-18T06:44:29.244Z,35.58
2022-10-18T06:45:01.160Z,32.83
2022-10-18T06:45:33.622Z,26.08
2022-10-18T06:46:07.684Z,31.23
2022-10-18T06:46:49.433Z,30.70
2022-10-18T06:47:21.345Z,27.92
2022-10-18T06:47:53.189Z,25.00
2022-10-18T06:48:25.082Z,23.73
2022-10-18T06:48:57.721Z,31.67
2022-10-18T06:49:29.603Z,30.62
2022-10-18T06:50:01.481Z,31.55
2022-10-18T06:50:33.301Z,32.28
2022-10-18T06:51:06.867Z,30.15
2022-10-18T06:51:38.900Z,36.38
2022-10-18T06:52:10.755Z,34.95
2022-10-18T06:52:42.614Z,22.35
2022-10-18T06:53:14.445Z,30.12
2022-10-18T06:53:59.066Z,37.35
2022-10-18T06:54:38.465Z,30.27
2022-10-18T06:55:10.327Z,29.37
2022-10-18T06:55:42.178Z,27.33
2022-10-18T06:56:14.083Z,32.80
2022-10-18T06:56:46.124Z,37.28
2022-10-18T06:57:18.023Z,30.27
2022-10-18T06:57:49.861Z,30.60
2022-10-18T06:58:21.711Z,23.62
2022-10-18T06:58:53.566Z,30.08
2022-10-18T06:59:28.857Z,20.00
2022-10-18T07:00:04.872Z,26.80
2022-10-18T07:00:37.056Z,25.02
2022-10-18T07:01:11.338Z,26.08
2022-10-18T07:01:43.848Z,23.23
2022-10-18T07:02:19.452Z,23.25
2022-10-18T07:02:51.301Z,23.80
2022-10-18T07:03:23.411Z,20.98
2022-10-18T07:03:56.005Z,23.98
2022-10-18T07:04:30.870Z,15.48
2022-10-18T07:05:02.836Z,19.10
2022-10-18T07:05:34.976Z,25.10
2022-10-18T07:06:08.841Z,23.48
2022-10-18T07:06:40.787Z,19.90
2022-10-18T07:07:12.771Z,14.87
2022-10-18T07:07:44.688Z,20.02
2022-10-18T07:08:17.700Z,15.52
2022-10-18T07:08:50.969Z,17.08
2022-10-18T07:09:22.816Z,17.20
2022-10-18T07:09:54.650Z,20.25
2022-10-18T07:10:26.489Z,18.73
2022-10-18T07:10:58.856Z,21.30
2022-10-18T07:11:30.739Z,20.00
2022-10-18T07:12:02.630Z,17.30
2022-10-18T07:12:34.747Z,15.98
2022-10-18T07:13:31.374Z,16.73
2022-10-18T07:14:03.299Z,17.77
2022-10-18T07:14:35.131Z,15.68
2022-10-18T07:15:09.518Z,17.48
2022-10-18T07:15:41.638Z,15.00
2022-10-18T07:16:18.312Z,18.48
2022-10-18T07:16:50.512Z,15.00
2022-10-18T07:17:22.332Z,16.35
2022-10-18T07:17:54.150Z,14.18
2022-10-18T07:18:25.989Z,16.12
2022-10-18T07:18:59.160Z,14.02
2022-10-18T07:19:31.088Z,16.50
2022-10-18T07:20:04.354Z,15.20
2022-10-18T07:20:36.218Z,14.32
2022-10-18T07:21:15.920Z,17.75
2022-10-18T07:21:48.014Z,17.92
2022-10-18T07:22:19.881Z,17.75
2022-10-18T07:22:56.156Z,17.25
2022-10-18T07:23:27.973Z,18.48
2022-10-18T07:23:59.827Z,19.52
2022-10-18T07:25:08.728Z,16.92
2022-10-18T07:25:40.564Z,18.08